Time;durP1;ratioP1;P1;durP2;ratioP2;P2;SDS_P1;SDS_P2;PMS_P1;PMS_P2;Temp;Humidity;BMP_temperature;BMP_pressure;BME280_temperature;BME280_humidity;BME280_pressure;Samples;Min_cycle;Max_cycle;Signal;HPM_P1;HPM_P2
2021/03/17 00:02:17;;;;;;;21.60;12.30;;;6.20;99.90;;;;;;5052778;28;20201;-81
2021/03/17 00:04:43;;;;;;;26.40;14.40;;;6.10;99.90;;;;;;5049796;28;20202;-80
2021/03/17 00:07:11;;;;;;;25.83;15.03;;;6.10;99.90;;;;;;5051197;28;20222;-79
2021/03/17 00:09:37;;;;;;;28.70;16.20;;;6.10;99.90;;;;;;5050741;28;20647;-79
2021/03/17 00:12:04;;;;;;;35.33;17.67;;;6.10;99.90;;;;;;5050624;28;20303;-80
2021/03/17 00:14:31;;;;;;;38.10;19.60;;;6.10;99.90;;;;;;5050217;28;20209;-79
2021/03/17 00:16:57;;;;;;;35.43;19.03;;;6.00;99.90;;;;;;5050152;28;20282;-80
2021/03/17 00:19:24;;;;;;;36.37;18.73;;;5.90;99.90;;;;;;5052030;28;20310;-80
2021/03/17 00:21:51;;;;;;;37.50;20.23;;;5.90;99.90;;;;;;5054666;28;20208;-78
2021/03/17 00:24:17;;;;;;;40.67;20.27;;;5.90;99.90;;;;;;5056189;28;20294;-79
2021/03/17 00:26:44;;;;;;;43.67;21.47;;;5.80;99.90;;;;;;5056171;28;20881;-78
2021/03/17 00:29:10;;;;;;;40.47;20.10;;;5.70;99.90;;;;;;5055676;28;20288;-80
2021/03/17 00:31:37;;;;;;;40.37;20.37;;;5.70;99.90;;;;;;5055835;28;20220;-80
2021/03/17 00:34:03;;;;;;;44.47;21.57;;;5.70;99.90;;;;;;5055765;28;20213;-78
2021/03/17 00:36:30;;;;;;;44.63;21.37;;;5.70;99.90;;;;;;5056074;28;20270;-79
2021/03/17 00:38:57;;;;;;;40.40;20.50;;;5.70;99.90;;;;;;5055486;28;20686;-79
2021/03/17 00:41:23;;;;;;;48.53;21.90;;;5.60;99.90;;;;;;5056177;28;20217;-83
2021/03/17 00:43:49;;;;;;;42.93;21.30;;;5.50;99.90;;;;;;5055435;28;20204;-80
2021/03/17 00:46:16;;;;;;;45.30;23.40;;;5.40;99.90;;;;;;5055949;28;20613;-80
2021/03/17 00:48:42;;;;;;;47.27;21.50;;;5.40;99.90;;;;;;5055336;28;20656;-83
2021/03/17 00:51:08;;;;;;;50.60;23.77;;;5.40;99.90;;;;;;5061519;28;20289;-81
2021/03/17 00:53:36;;;;;;;46.47;22.90;;;5.40;99.90;;;;;;5063211;28;20297;-81
2021/03/17 00:56:02;;;;;;;53.33;25.07;;;5.40;99.90;;;;;;5055284;28;20807;-81
2021/03/17 00:58:29;;;;;;;53.17;25.07;;;5.50;99.90;;;;;;5063989;28;20288;-82
2021/03/17 01:00:55;;;;;;;54.67;25.27;;;5.40;99.90;;;;;;5058342;28;20659;-82
2021/03/17 01:03:21;;;;;;;56.77;26.40;;;5.50;99.90;;;;;;5055207;28;20736;-80
2021/03/17 01:05:48;;;;;;;54.17;25.77;;;5.50;99.90;;;;;;5055030;28;20280;-79
2021/03/17 01:08:15;;;;;;;60.10;26.63;;;5.40;99.90;;;;;;5055622;28;20333;-79
2021/03/17 01:10:44;;;;;;;53.60;26.17;;;5.40;99.90;;;;;;5055279;28;20239;-80
2021/03/17 01:13:11;;;;;;;60.97;29.30;;;5.40;99.90;;;;;;5054935;28;20205;-82
2021/03/17 01:15:39;;;;;;;62.93;29.13;;;5.50;99.90;;;;;;5064789;28;20204;-80
2021/03/17 01:18:06;;;;;;;67.13;31.30;;;5.50;99.90;;;;;;5057219;28;20612;-82
2021/03/17 01:20:33;;;;;;;62.33;28.73;;;5.50;99.90;;;;;;5054979;28;20225;-80
2021/03/17 01:23:00;;;;;;;60.33;29.07;;;5.40;99.90;;;;;;5055216;28;20348;-80
2021/03/17 01:25:29;;;;;;;64.70;30.90;;;5.40;99.90;;;;;;5055206;28;20218;-79
2021/03/17 01:27:57;;;;;;;58.33;27.97;;;5.30;99.90;;;;;;5055361;28;20234;-80
2021/03/17 01:30:26;;;;;;;67.50;31.37;;;5.30;99.90;;;;;;5054210;28;20204;-79
2021/03/17 01:32:53;;;;;;;68.57;30.63;;;5.30;99.90;;;;;;5054822;28;20324;-79
2021/03/17 01:35:20;;;;;;;68.90;30.60;;;5.40;99.90;;;;;;5054455;28;20733;-81
2021/03/17 01:37:47;;;;;;;64.47;30.27;;;5.50;99.90;;;;;;5054600;28;20198;-80
2021/03/17 01:40:14;;;;;;;66.10;30.93;;;5.40;99.90;;;;;;5060736;28;20202;-82
2021/03/17 01:42:41;;;;;;;64.47;30.67;;;5.40;99.90;;;;;;5068189;28;20224;-80
2021/03/17 01:45:13;;;;;;;65.93;29.93;;;5.40;99.90;;;;;;5054229;28;20216;-80
2021/03/17 01:47:40;;;;;;;63.53;30.80;;;5.40;99.90;;;;;;5054107;28;20235;-82
2021/03/17 01:50:09;;;;;;;65.07;30.87;;;5.40;99.90;;;;;;5054325;28;20332;-81
2021/03/17 01:52:36;;;;;;;63.50;30.63;;;5.30;99.90;;;;;;5054366;28;20251;-81
2021/03/17 01:55:04;;;;;;;64.43;30.17;;;5.30;99.90;;;;;;5054617;28;20294;-82
2021/03/17 01:57:31;;;;;;;64.53;31.73;;;5.30;99.90;;;;;;5053685;28;20686;-81
2021/03/17 01:59:58;;;;;;;66.43;30.57;;;5.40;99.90;;;;;;5058552;28;20201;-82
2021/03/17 02:02:25;;;;;;;65.10;31.93;;;5.30;99.90;;;;;;5072909;28;20627;-79
2021/03/17 02:04:52;;;;;;;64.37;32.00;;;5.30;99.90;;;;;;5054040;28;20286;-80
2021/03/17 02:07:18;;;;;;;58.30;29.13;;;5.30;99.90;;;;;;5054537;28;20201;-80
2021/03/17 02:09:44;;;;;;;47.33;25.77;;;5.10;99.90;;;;;;5053646;28;20208;-81
2021/03/17 02:12:21;;;;;;;40.10;22.17;;;5.10;99.90;;;;;;5053987;28;20228;-78
2021/03/17 02:15:09;;;;;;;34.23;18.90;;;5.00;99.90;;;;;;5054022;28;20222;-80
2021/03/17 02:17:41;;;;;;;36.10;20.20;;;4.90;99.90;;;;;;5054201;28;20291;-81
2021/03/17 02:20:29;;;;;;;37.53;21.30;;;4.90;99.90;;;;;;5041012;28;20209;-81
2021/03/17 02:23:03;;;;;;;38.90;22.50;;;4.90;99.90;;;;;;5053799;28;20201;-80
2021/03/17 02:25:58;;;;;;;40.00;21.70;;;4.90;99.90;;;;;;5053911;28;20213;-80
2021/03/17 02:28:43;;;;;;;39.40;22.07;;;4.90;99.90;;;;;;5053537;28;20730;-79
2021/03/17 02:31:56;;;;;;;42.63;23.10;;;4.90;99.90;;;;;;5053563;28;20313;-80
2021/03/17 02:34:27;;;;;;;40.67;21.70;;;4.90;99.90;;;;;;4984275;28;20234;-80
2021/03/17 02:36:59;;;;;;;39.47;21.83;;;4.90;99.90;;;;;;5006529;28;20225;-80
2021/03/17 02:39:28;;;;;;;40.30;21.60;;;4.90;99.90;;;;;;5032684;28;20282;-80
2021/03/17 02:42:03;;;;;;;41.43;22.37;;;4.90;99.90;;;;;;5045174;28;20296;-81
2021/03/17 02:44:29;;;;;;;41.90;21.63;;;4.90;99.90;;;;;;5052926;28;20201;-80
2021/03/17 02:47:00;;;;;;;44.03;21.37;;;4.90;99.90;;;;;;5053334;28;20308;-80
2021/03/17 02:49:34;;;;;;;43.63;22.20;;;4.90;99.90;;;;;;5053301;28;20195;-81
2021/03/17 02:52:02;;;;;;;39.70;21.90;;;4.90;99.90;;;;;;5053374;28;20302;-82
2021/03/17 02:54:29;;;;;;;43.43;22.37;;;4.90;99.90;;;;;;5053476;28;20204;-82
2021/03/17 02:56:59;;;;;;;42.50;22.63;;;4.90;99.90;;;;;;5035579;28;20217;-80
2021/03/17 02:59:27;;;;;;;42.10;21.83;;;4.90;99.90;;;;;;5053339;28;20708;-80
2021/03/17 03:01:56;;;;;;;41.30;22.33;;;4.90;99.90;;;;;;5053556;28;20231;-80
2021/03/17 03:04:25;;;;;;;42.47;22.27;;;5.00;99.90;;;;;;5052848;28;20223;-79
2021/03/17 03:06:55;;;;;;;40.93;20.97;;;5.10;99.90;;;;;;5053309;28;20219;-79
2021/03/17 03:09:23;;;;;;;44.97;22.57;;;5.00;99.90;;;;;;5051576;28;20220;-81
2021/03/17 03:11:50;;;;;;;44.87;23.30;;;5.00;99.90;;;;;;5052633;28;20248;-79
2021/03/17 03:14:17;;;;;;;48.80;23.47;;;5.00;99.90;;;;;;5053207;28;20201;-80
2021/03/17 03:16:44;;;;;;;43.53;23.33;;;4.90;99.90;;;;;;5052753;28;20719;-80
2021/03/17 03:19:12;;;;;;;43.10;22.57;;;4.90;99.90;;;;;;5052984;28;20205;-81
2021/03/17 03:21:39;;;;;;;42.43;22.77;;;5.00;99.90;;;;;;5051137;28;20240;-82
2021/03/17 03:24:07;;;;;;;50.93;23.60;;;5.10;99.90;;;;;;5052133;28;20235;-80
2021/03/17 03:26:35;;;;;;;47.97;23.00;;;5.10;99.90;;;;;;5052275;28;20203;-80
2021/03/17 03:29:03;;;;;;;43.40;23.20;;;5.30;99.90;;;;;;5052353;28;20288;-80
2021/03/17 03:31:30;;;;;;;43.77;23.17;;;5.30;99.90;;;;;;5053957;28;20214;-81
2021/03/17 03:33:56;;;;;;;42.20;23.03;;;5.40;99.90;;;;;;5051896;28;20725;-79
2021/03/17 03:36:24;;;;;;;48.17;23.43;;;5.40;99.90;;;;;;5052663;28;20285;-79
2021/03/17 03:38:51;;;;;;;49.23;24.37;;;5.50;99.90;;;;;;5056084;28;20643;-82
2021/03/17 03:41:18;;;;;;;47.40;23.97;;;5.40;99.90;;;;;;5046133;28;20743;-80
2021/03/17 03:43:45;;;;;;;44.37;23.40;;;5.60;99.90;;;;;;5052612;28;20205;-82
2021/03/17 03:46:11;;;;;;;48.23;24.27;;;5.70;99.90;;;;;;5054460;28;20213;-80
2021/03/17 03:48:38;;;;;;;46.03;23.60;;;5.70;99.90;;;;;;5054068;28;20212;-79
2021/03/17 03:51:05;;;;;;;46.87;23.67;;;5.80;99.90;;;;;;5054968;28;20292;-80
2021/03/17 03:53:46;;;;;;;46.33;24.03;;;5.80;99.90;;;;;;5053901;28;20288;-81
2021/03/17 03:56:15;;;;;;;51.03;25.00;;;5.80;99.90;;;;;;5058232;28;20206;-81
2021/03/17 03:58:47;;;;;;;49.67;25.07;;;5.80;99.90;;;;;;5058758;28;20703;-82
2021/03/17 04:01:17;;;;;;;48.87;25.73;;;6.00;99.90;;;;;;5058463;28;20216;-80
2021/03/17 04:03:51;;;;;;;56.47;26.97;;;6.10;99.90;;;;;;5061346;28;20677;-82
2021/03/17 04:06:18;;;;;;;54.53;25.47;;;6.10;99.90;;;;;;5081438;28;20232;-80
2021/03/17 04:08:47;;;;;;;54.90;26.73;;;6.20;99.90;;;;;;5081445;28;20257;-81
2021/03/17 04:11:14;;;;;;;52.80;26.57;;;6.10;99.90;;;;;;5081200;28;20248;-79
2021/03/17 04:13:42;;;;;;;53.50;26.53;;;6.20;99.90;;;;;;5091822;28;20216;-79
2021/03/17 04:16:12;;;;;;;58.30;26.90;;;6.10;99.90;;;;;;5087676;28;20229;-81
2021/03/17 04:18:41;;;;;;;60.43;27.67;;;6.10;99.90;;;;;;5091763;28;20263;-80
2021/03/17 04:21:13;;;;;;;55.67;27.40;;;6.10;99.90;;;;;;5082960;28;20241;-80
2021/03/17 04:23:43;;;;;;;56.80;27.07;;;6.10;99.90;;;;;;5058435;28;20289;-80
2021/03/17 04:26:11;;;;;;;59.07;28.70;;;6.20;99.90;;;;;;5057160;28;20204;-82
2021/03/17 04:28:40;;;;;;;57.17;27.00;;;6.20;99.90;;;;;;5056493;28;20747;-80
2021/03/17 04:31:07;;;;;;;54.00;26.73;;;6.20;99.90;;;;;;5056566;28;20202;-81
2021/03/17 04:33:37;;;;;;;54.63;26.77;;;5.90;99.90;;;;;;5056397;28;20731;-79
2021/03/17 04:36:05;;;;;;;51.43;25.77;;;5.70;99.90;;;;;;5055938;28;20377;-80
2021/03/17 04:38:33;;;;;;;54.47;26.90;;;5.60;99.90;;;;;;5056347;28;20208;-81
2021/03/17 04:41:00;;;;;;;50.43;24.90;;;5.60;99.90;;;;;;5069269;28;20302;-79
2021/03/17 04:43:28;;;;;;;53.77;25.47;;;5.50;99.90;;;;;;5056217;28;20203;-80
2021/03/17 04:45:55;;;;;;;50.40;25.10;;;5.50;99.90;;;;;;5055871;28;20302;-80
2021/03/17 04:48:22;;;;;;;50.03;24.70;;;5.50;99.90;;;;;;5055650;28;20232;-80
2021/03/17 04:50:51;;;;;;;51.83;25.63;;;5.40;99.90;;;;;;5055767;28;20223;-79
2021/03/17 04:53:17;;;;;;;52.47;25.90;;;5.40;99.90;;;;;;5055503;28;20237;-82
2021/03/17 04:55:44;;;;;;;49.87;25.00;;;5.50;99.90;;;;;;5055953;28;20284;-80
2021/03/17 04:58:20;;;;;;;50.63;25.63;;;5.50;99.90;;;;;;5055476;28;20210;-81
2021/03/17 05:00:49;;;;;;;51.60;25.20;;;5.60;99.90;;;;;;5055689;28;20661;-81
2021/03/17 05:03:19;;;;;;;50.53;24.87;;;5.60;99.90;;;;;;5055019;28;20293;-81
2021/03/17 05:05:50;;;;;;;53.57;26.03;;;5.70;99.90;;;;;;5054365;28;20333;-81
2021/03/17 05:08:18;;;;;;;49.53;25.23;;;5.80;99.90;;;;;;5055214;28;20233;-81
2021/03/17 05:10:46;;;;;;;47.47;23.57;;;5.70;99.90;;;;;;5057550;28;20285;-80
2021/03/17 05:13:14;;;;;;;49.33;25.07;;;5.70;99.90;;;;;;5062919;28;20319;-80
2021/03/17 05:15:41;;;;;;;51.27;24.97;;;5.60;99.90;;;;;;5054842;28;20656;-81
2021/03/17 05:18:10;;;;;;;46.43;23.97;;;5.60;99.90;;;;;;5055368;28;20206;-80
2021/03/17 05:20:37;;;;;;;49.47;24.98;;;5.60;99.90;;;;;;5055006;28;20898;-82
2021/03/17 05:23:06;;;;;;;44.67;22.87;;;5.80;99.90;;;;;;5050101;28;20728;-80
2021/03/17 05:25:33;;;;;;;41.03;19.90;;;5.80;99.90;;;;;;5054124;28;20482;-82
2021/03/17 05:28:04;;;;;;;35.90;18.93;;;5.80;99.90;;;;;;5054848;28;20287;-81
2021/03/17 05:30:32;;;;;;;35.63;17.53;;;5.70;99.90;;;;;;5049065;28;20198;-81
2021/03/17 05:33:00;;;;;;;38.57;18.13;;;5.70;99.90;;;;;;5040512;28;20274;-81
2021/03/17 05:35:28;;;;;;;35.03;17.90;;;5.80;99.90;;;;;;5044814;28;20207;-81
2021/03/17 05:37:54;;;;;;;35.80;17.97;;;5.80;99.90;;;;;;5054756;28;20207;-83
2021/03/17 05:40:22;;;;;;;36.33;17.53;;;5.80;99.90;;;;;;5052528;28;20205;-81
2021/03/17 05:42:48;;;;;;;35.27;17.50;;;5.70;99.90;;;;;;5044900;28;20285;-80
2021/03/17 05:45:17;;;;;;;34.60;16.37;;;5.70;99.90;;;;;;5051428;28;20624;-82
2021/03/17 05:47:45;;;;;;;32.73;15.93;;;5.70;99.90;;;;;;5065579;28;20269;-81
2021/03/17 05:50:13;;;;;;;32.93;16.73;;;5.80;99.90;;;;;;5048678;28;20201;-79
2021/03/17 05:52:40;;;;;;;37.60;17.43;;;5.80;99.90;;;;;;5048849;28;20657;-82
2021/03/17 05:55:09;;;;;;;39.23;17.73;;;5.80;99.90;;;;;;5049007;28;20206;-80
2021/03/17 05:57:36;;;;;;;38.77;17.80;;;5.90;99.90;;;;;;5051686;28;20202;-80
2021/03/17 06:00:05;;;;;;;37.13;17.00;;;5.90;99.90;;;;;;5054458;28;20221;-81
2021/03/17 06:02:32;;;;;;;43.07;18.70;;;5.90;99.90;;;;;;5054665;28;20199;-81
2021/03/17 06:05:01;;;;;;;39.47;18.63;;;6.10;99.90;;;;;;5054201;28;20196;-80
2021/03/17 06:07:33;;;;;;;40.40;18.07;;;5.90;99.90;;;;;;5054290;28;20221;-79
2021/03/17 06:10:03;;;;;;;37.20;18.17;;;6.00;99.90;;;;;;5066795;28;20366;-80
2021/03/17 06:12:35;;;;;;;43.88;19.95;;;6.00;99.90;;;;;;5052875;28;20476;-82
2021/03/17 06:15:03;;;;;;;37.83;19.40;;;6.00;99.90;;;;;;5047724;28;20301;-79
2021/03/17 06:17:31;;;;;;;41.67;19.30;;;6.00;99.90;;;;;;5047678;28;20208;-82
2021/03/17 06:20:01;;;;;;;36.53;18.30;;;6.10;99.90;;;;;;5046662;28;20694;-80
2021/03/17 06:22:28;;;;;;;38.73;17.70;;;6.10;99.90;;;;;;5051953;28;20200;-79
2021/03/17 06:24:56;;;;;;;39.63;19.27;;;6.00;99.90;;;;;;5053515;28;20289;-81
2021/03/17 06:27:25;;;;;;;35.97;18.53;;;6.10;99.90;;;;;;5048668;28;20657;-82
2021/03/17 06:29:51;;;;;;;30.77;17.27;;;6.00;99.90;;;;;;5053538;28;20300;-80
2021/03/17 06:32:19;;;;;;;38.00;18.93;;;6.10;99.90;;;;;;5051978;28;20312;-80
2021/03/17 06:34:46;;;;;;;40.57;18.43;;;6.10;99.90;;;;;;5050102;28;20738;-80
2021/03/17 06:37:13;;;;;;;37.23;17.27;;;6.00;99.90;;;;;;5071609;28;20204;-79
2021/03/17 06:39:39;;;;;;;39.63;16.47;;;6.10;99.90;;;;;;5071477;28;20195;-80
2021/03/17 06:42:07;;;;;;;34.00;15.30;;;6.20;99.90;;;;;;5073119;28;20300;-80
2021/03/17 06:44:33;;;;;;;25.90;15.23;;;6.20;99.90;;;;;;5062175;28;20301;-80
2021/03/17 06:47:18;;;;;;;32.17;14.77;;;6.20;99.90;;;;;;5053243;28;20804;-80
2021/03/17 06:49:47;;;;;;;27.17;14.33;;;6.30;99.90;;;;;;5053186;28;20198;-80
2021/03/17 06:52:31;;;;;;;26.50;13.30;;;6.40;99.90;;;;;;5052828;28;20306;-78
2021/03/17 06:55:06;;;;;;;24.13;11.83;;;6.40;99.90;;;;;;5052129;28;20200;-79
2021/03/17 06:57:34;;;;;;;24.33;11.20;;;6.50;99.90;;;;;;5053164;28;20217;-82
2021/03/17 07:00:20;;;;;;;39.67;10.80;;;6.60;99.90;;;;;;5053712;28;20748;-83
2021/03/17 07:02:54;;;;;;;19.83;9.73;;;6.70;99.90;;;;;;5051982;28;20639;-78
2021/03/17 07:05:30;;;;;;;20.63;9.57;;;6.80;99.90;;;;;;5053687;28;20263;-78
2021/03/17 07:07:58;;;;;;;23.00;8.47;;;6.90;99.90;;;;;;5052818;28;20290;-76
2021/03/17 07:10:29;;;;;;;20.67;9.00;;;7.00;99.90;;;;;;5052072;28;20217;-79
2021/03/17 07:12:57;;;;;;;22.03;7.87;;;7.10;99.90;;;;;;5051303;28;20316;-79
2021/03/17 07:15:24;;;;;;;16.80;6.07;;;7.00;99.90;;;;;;5030339;28;20237;-76
2021/03/17 07:17:52;;;;;;;22.47;6.60;;;7.00;99.90;;;;;;5052346;28;20300;-77
2021/03/17 07:20:39;;;;;;;18.67;6.13;;;7.10;99.90;;;;;;5052916;28;20202;-80
2021/03/17 07:23:40;;;;;;;17.03;4.63;;;7.10;99.90;;;;;;5052555;28;20663;-78
2021/03/17 07:26:21;;;;;;;11.57;5.20;;;6.90;99.90;;;;;;4991288;28;20311;-78
2021/03/17 07:28:58;;;;;;;12.70;4.80;;;6.90;99.90;;;;;;4990750;28;20357;-78
2021/03/17 07:31:26;;;;;;;18.07;4.63;;;6.90;99.90;;;;;;5024734;28;20198;-80
2021/03/17 07:33:53;;;;;;;15.30;4.70;;;7.10;99.90;;;;;;5052601;28;20603;-77
2021/03/17 07:36:39;;;;;;;18.53;4.40;;;7.20;99.90;;;;;;5052740;28;20268;-77
2021/03/17 07:39:09;;;;;;;16.50;4.70;;;7.20;99.90;;;;;;5057482;28;20201;-79
2021/03/17 07:41:36;;;;;;;16.93;5.27;;;7.20;99.90;;;;;;5072604;28;20284;-79
2021/03/17 07:44:07;;;;;;;17.13;4.40;;;7.40;99.90;;;;;;5056430;28;20213;-78
2021/03/17 07:46:35;;;;;;;18.17;4.50;;;7.40;99.90;;;;;;5049585;28;20256;-79
2021/03/17 07:49:02;;;;;;;13.33;4.00;;;7.30;99.90;;;;;;5052965;28;20252;-78
2021/03/17 07:51:30;;;;;;;15.77;4.60;;;7.30;99.90;;;;;;5052373;28;20541;-76
2021/03/17 07:54:00;;;;;;;12.47;4.90;;;7.20;99.90;;;;;;5052451;28;20638;-79
2021/03/17 07:56:27;;;;;;;14.17;4.73;;;7.40;99.90;;;;;;5052275;28;20193;-80
2021/03/17 07:58:55;;;;;;;17.00;4.53;;;7.40;99.90;;;;;;5052464;28;20207;-78
2021/03/17 08:01:22;;;;;;;13.40;3.93;;;7.50;99.90;;;;;;5052428;28;20396;-79
2021/03/17 08:03:51;;;;;;;16.70;4.70;;;7.40;99.90;;;;;;5052303;28;20658;-78
2021/03/17 08:06:20;;;;;;;17.87;4.30;;;7.40;99.90;;;;;;5052507;28;20212;-79
2021/03/17 08:08:48;;;;;;;12.70;3.67;;;7.30;99.90;;;;;;5052439;28;20283;-78
2021/03/17 08:11:18;;;;;;;13.17;4.43;;;7.30;99.90;;;;;;5052712;28;20644;-79
2021/03/17 08:13:46;;;;;;;11.43;3.67;;;7.30;99.90;;;;;;5032474;28;20297;-81
2021/03/17 08:16:13;;;;;;;14.87;4.03;;;7.40;99.90;;;;;;5032395;28;20314;-79
2021/03/17 08:18:50;;;;;;;10.63;3.97;;;7.50;99.90;;;;;;5032136;28;20207;-78
2021/03/17 08:21:43;;;;;;;7.43;3.57;;;7.50;99.90;;;;;;5032622;28;20667;-78
2021/03/17 08:24:10;;;;;;;11.13;4.00;;;7.40;99.90;;;;;;5032724;28;20205;-77
2021/03/17 08:26:45;;;;;;;7.13;3.80;;;7.40;99.90;;;;;;5032479;28;20301;-80
2021/03/17 08:29:14;;;;;;;9.13;3.13;;;7.30;99.90;;;;;;5032542;28;20236;-79
2021/03/17 08:31:48;;;;;;;8.73;3.37;;;7.30;99.90;;;;;;5031938;28;20224;-78
2021/03/17 08:34:26;;;;;;;8.10;3.50;;;7.10;99.90;;;;;;5033619;28;20657;-78
2021/03/17 08:36:54;;;;;;;10.17;3.33;;;7.00;99.90;;;;;;5055325;28;20367;-82
2021/03/17 08:39:42;;;;;;;7.80;3.30;;;6.90;99.90;;;;;;5080687;28;20736;-78
2021/03/17 08:42:10;;;;;;;11.00;4.50;;;6.90;99.90;;;;;;5087076;28;20606;-77
2021/03/17 08:44:49;;;;;;;12.27;4.60;;;6.90;99.90;;;;;;5076645;28;20647;-82
2021/03/17 08:47:21;;;;;;;9.63;4.70;;;6.80;99.90;;;;;;5075892;28;20531;-80
2021/03/17 08:49:49;;;;;;;7.73;4.73;;;6.80;99.90;;;;;;5075903;28;20284;-81
2021/03/17 08:52:17;;;;;;;8.97;5.07;;;6.80;99.90;;;;;;5075405;28;20754;-78
2021/03/17 08:55:14;;;;;;;11.10;5.17;;;6.80;99.90;;;;;;5075261;28;20243;-78
2021/03/17 08:58:06;;;;;;;14.60;6.43;;;6.70;99.90;;;;;;5064895;28;20200;-78
2021/03/17 09:00:47;;;;;;;11.13;5.27;;;6.80;99.90;;;;;;5064366;28;20587;-78
2021/03/17 09:03:39;;;;;;;9.30;5.13;;;6.90;99.90;;;;;;5054839;28;20213;-79
2021/03/17 09:06:08;;;;;;;12.83;6.27;;;7.10;99.90;;;;;;5055240;28;20737;-76
2021/03/17 09:08:51;;;;;;;12.30;5.93;;;7.10;99.90;;;;;;5055723;28;20297;-80
2021/03/17 09:11:51;;;;;;;9.93;5.23;;;7.30;99.90;;;;;;5053452;28;20225;-78
2021/03/17 09:14:27;;;;;;;12.70;4.87;;;7.20;99.90;;;;;;4974099;28;20592;-78
2021/03/17 09:17:31;;;;;;;10.57;4.00;;;7.20;99.90;;;;;;4974475;28;20204;-80
2021/03/17 09:20:23;;;;;;;10.77;4.83;;;7.20;99.90;;;;;;5033154;28;20260;-79
2021/03/17 09:22:59;;;;;;;5.63;4.37;;;7.00;99.90;;;;;;5055481;28;20271;-78
2021/03/17 09:25:27;;;;;;;12.30;5.10;;;7.00;99.90;;;;;;5055456;28;20225;-79
2021/03/17 09:27:57;;;;;;;10.33;5.23;;;6.90;99.90;;;;;;5054960;28;20232;-80
2021/03/17 09:30:26;;;;;;;9.63;6.03;;;6.90;99.90;;;;;;5055206;28;20235;-77
2021/03/17 09:33:07;;;;;;;8.33;5.20;;;6.90;99.90;;;;;;5054537;28;20754;-78
2021/03/17 09:35:34;;;;;;;9.87;5.90;;;7.00;99.90;;;;;;5054647;28;20340;-78
2021/03/17 09:38:10;;;;;;;8.33;5.37;;;7.00;99.90;;;;;;5054812;28;20240;-78
2021/03/17 09:40:41;;;;;;;14.30;6.00;;;7.00;99.90;;;;;;5054814;28;20727;-79
2021/03/17 09:43:43;;;;;;;10.67;6.33;;;7.00;99.90;;;;;;5054273;28;20208;-77
2021/03/17 09:46:25;;;;;;;9.47;4.97;;;7.30;99.90;;;;;;5045718;28;20297;-80
2021/03/17 09:48:54;;;;;;;7.87;4.27;;;7.50;99.90;;;;;;5034892;28;20244;-77
2021/03/17 09:51:22;;;;;;;7.90;4.97;;;7.40;99.90;;;;;;5034056;28;20202;-78
2021/03/17 09:53:50;;;;;;;5.70;3.40;;;7.30;99.90;;;;;;5038996;28;20264;-82
2021/03/17 09:56:16;;;;;;;6.60;3.77;;;7.30;99.90;;;;;;5054482;28;20240;-78
2021/03/17 09:58:43;;;;;;;8.83;4.00;;;7.30;99.90;;;;;;5054458;28;20240;-76
2021/03/17 10:01:11;;;;;;;4.17;3.37;;;7.40;99.90;;;;;;5054428;28;20244;-77
2021/03/17 10:03:42;;;;;;;4.17;3.03;;;7.40;99.90;;;;;;5053875;28;20209;-81
2021/03/17 10:06:09;;;;;;;3.27;2.97;;;7.50;99.90;;;;;;5053968;28;20198;-78
2021/03/17 10:08:35;;;;;;;3.77;2.83;;;7.60;99.90;;;;;;5054385;28;20200;-79
2021/03/17 10:11:03;;;;;;;5.60;2.93;;;7.50;99.90;;;;;;5054498;28;20194;-78
2021/03/17 10:13:34;;;;;;;6.07;2.57;;;7.50;99.90;;;;;;5053927;28;20276;-78
2021/03/17 10:16:01;;;;;;;3.27;1.90;;;7.50;99.90;;;;;;5053972;28;20641;-78
2021/03/17 10:18:28;;;;;;;2.60;1.50;;;7.40;99.90;;;;;;5053431;28;20237;-77
2021/03/17 10:20:56;;;;;;;3.20;1.60;;;7.30;99.90;;;;;;5044214;28;20578;-80
2021/03/17 10:23:23;;;;;;;2.30;1.13;;;7.40;99.90;;;;;;5034740;28;20285;-76
2021/03/17 10:25:50;;;;;;;5.00;1.73;;;7.30;99.90;;;;;;5033827;28;20293;-76
2021/03/17 10:28:18;;;;;;;1.83;1.47;;;7.20;99.90;;;;;;5033675;28;20199;-79
2021/03/17 10:30:47;;;;;;;6.20;2.13;;;7.20;99.90;;;;;;5033964;28;20198;-78
2021/03/17 10:33:15;;;;;;;4.67;1.80;;;7.50;99.90;;;;;;5040222;28;20618;-77
2021/03/17 10:35:43;;;;;;;3.03;1.87;;;7.70;99.90;;;;;;5052461;28;20686;-80
2021/03/17 10:38:11;;;;;;;4.03;1.50;;;7.90;99.90;;;;;;5053672;28;20293;-81
2021/03/17 10:40:38;;;;;;;3.30;1.50;;;8.10;99.90;;;;;;5053721;28;20260;-80
2021/03/17 10:43:09;;;;;;;2.57;1.53;;;8.30;99.90;;;;;;5053926;28;20288;-80
2021/03/17 10:45:44;;;;;;;2.23;1.83;;;8.50;99.90;;;;;;5053987;28;20216;-78
2021/03/17 10:48:12;;;;;;;5.47;1.83;;;8.80;99.90;;;;;;5053614;28;20191;-81
2021/03/17 10:50:39;;;;;;;3.53;2.00;;;8.80;99.90;;;;;;5053490;28;20747;-79
2021/03/17 10:53:17;;;;;;;7.80;2.60;;;8.50;99.90;;;;;;5053626;28;20322;-81
2021/03/17 10:55:43;;;;;;;4.63;2.60;;;8.20;99.90;;;;;;5053777;28;20233;-78
2021/03/17 10:58:13;;;;;;;5.70;3.23;;;7.90;99.90;;;;;;5053291;28;20756;-78
2021/03/17 11:00:40;;;;;;;5.23;3.37;;;7.60;99.90;;;;;;5053702;28;20210;-76
2021/03/17 11:03:22;;;;;;;4.27;2.97;;;7.50;99.90;;;;;;5052393;28;20566;-78
2021/03/17 11:05:49;;;;;;;4.97;3.20;;;7.30;99.90;;;;;;5053464;28;20228;-81
2021/03/17 11:08:16;;;;;;;3.40;2.83;;;7.10;99.90;;;;;;5053382;28;20292;-77
2021/03/17 11:10:49;;;;;;;4.50;3.40;;;7.00;99.90;;;;;;5053448;28;20289;-78
2021/03/17 11:13:30;;;;;;;9.53;4.20;;;6.70;99.90;;;;;;5053584;28;20230;-78
2021/03/17 11:15:59;;;;;;;9.37;4.53;;;6.60;99.90;;;;;;5053496;28;20232;-77
2021/03/17 11:18:28;;;;;;;7.87;4.47;;;6.50;99.90;;;;;;5052982;28;20281;-78
2021/03/17 11:20:56;;;;;;;3.77;3.23;;;6.40;99.90;;;;;;5053089;28;20293;-77
2021/03/17 11:23:25;;;;;;;6.70;3.40;;;6.40;99.90;;;;;;5053274;28;20237;-78
2021/03/17 11:25:53;;;;;;;3.57;2.60;;;6.30;99.90;;;;;;5053258;28;20202;-80
2021/03/17 11:28:22;;;;;;;4.13;3.17;;;6.30;99.90;;;;;;5053224;28;20253;-81
2021/03/17 11:30:52;;;;;;;6.90;3.20;;;6.20;99.90;;;;;;5053357;28;20201;-78
2021/03/17 11:33:20;;;;;;;5.30;2.83;;;6.20;99.90;;;;;;5052844;28;20245;-78
2021/03/17 11:36:01;;;;;;;5.77;2.30;;;6.20;99.90;;;;;;5037567;28;20201;-79
2021/03/17 11:38:29;;;;;;;7.47;3.30;;;6.10;99.90;;;;;;5042610;28;20199;-79
2021/03/17 11:40:58;;;;;;;4.53;2.13;;;6.00;99.90;;;;;;5045033;28;20299;-81
2021/03/17 11:43:27;;;;;;;6.60;2.07;;;6.10;99.90;;;;;;5043660;28;20217;-77
2021/03/17 11:45:55;;;;;;;6.10;1.83;;;6.20;99.90;;;;;;5038937;28;20222;-77
2021/03/17 11:48:22;;;;;;;4.23;1.50;;;6.40;99.90;;;;;;5047661;28;20205;-79
2021/03/17 11:50:51;;;;;;;8.93;2.17;;;6.40;99.90;;;;;;5046614;28;20206;-77
2021/03/17 11:53:20;;;;;;;11.90;1.60;;;6.40;99.90;;;;;;5052219;28;20233;-80
2021/03/17 11:55:49;;;;;;;7.57;1.73;;;6.40;99.90;;;;;;5051856;28;20682;-80
2021/03/17 11:58:17;;;;;;;2.43;1.27;;;6.50;99.90;;;;;;5050113;28;20217;-76
2021/03/17 12:00:44;;;;;;;2.93;1.37;;;6.50;99.90;;;;;;5044337;28;20202;-81
2021/03/17 12:03:11;;;;;;;7.23;2.13;;;6.50;99.90;;;;;;5043240;28;20197;-78
2021/03/17 12:05:40;;;;;;;6.40;1.77;;;6.50;99.90;;;;;;5043485;28;20201;-77
2021/03/17 12:08:07;;;;;;;6.77;1.60;;;6.60;99.90;;;;;;5042973;28;20213;-81
2021/03/17 12:10:37;;;;;;;5.07;1.57;;;6.70;99.90;;;;;;5041002;28;20214;-79
2021/03/17 12:13:07;;;;;;;5.30;1.70;;;6.80;99.90;;;;;;5042710;28;20220;-78
2021/03/17 12:15:35;;;;;;;9.20;1.80;;;7.00;99.90;;;;;;5047659;28;20218;-80
2021/03/17 12:18:02;;;;;;;6.90;1.60;;;7.20;99.90;;;;;;5049020;28;20230;-79
2021/03/17 12:20:32;;;;;;;4.20;1.60;;;7.40;99.90;;;;;;5045483;28;20206;-78
2021/03/17 12:23:00;;;;;;;5.57;1.90;;;7.60;99.90;;;;;;5046702;28;20209;-78
2021/03/17 12:25:28;;;;;;;7.67;1.70;;;7.80;99.90;;;;;;5045699;28;20240;-78
2021/03/17 12:27:55;;;;;;;7.77;1.60;;;8.00;99.90;;;;;;5043747;28;20201;-79
2021/03/17 12:30:24;;;;;;;5.07;1.70;;;8.20;99.90;;;;;;5048548;28;20300;-78
2021/03/17 12:32:53;;;;;;;7.17;1.60;;;8.20;99.90;;;;;;5043726;28;20352;-79
2021/03/17 12:35:22;;;;;;;6.77;1.93;;;8.80;99.90;;;;;;5044123;28;20213;-77
2021/03/17 12:37:52;;;;;;;6.13;1.60;;;9.00;99.90;;;;;;5047426;28;20206;-81
2021/03/17 12:40:21;;;;;;;5.40;2.10;;;9.30;99.90;;;;;;5046101;28;20252;-81
2021/03/17 12:42:48;;;;;;;6.33;1.90;;;9.30;99.90;;;;;;5045320;28;20609;-80
2021/03/17 12:45:19;;;;;;;7.70;1.70;;;9.00;99.90;;;;;;5046325;28;20894;-78
2021/03/17 12:47:47;;;;;;;5.20;1.40;;;8.80;99.90;;;;;;5043616;28;20199;-78
2021/03/17 12:50:17;;;;;;;6.37;1.57;;;8.50;99.90;;;;;;5049184;28;20679;-79
2021/03/17 12:52:44;;;;;;;7.63;1.40;;;8.30;99.90;;;;;;5045726;28;20811;-78
2021/03/17 12:55:13;;;;;;;6.23;1.40;;;8.20;99.90;;;;;;5046941;28;20203;-77
2021/03/17 12:57:42;;;;;;;9.07;1.97;;;7.90;99.90;;;;;;5046839;28;20287;-79
2021/03/17 13:00:12;;;;;;;7.40;2.10;;;8.10;99.90;;;;;;5046469;28;20195;-76
2021/03/17 13:02:39;;;;;;;7.13;1.50;;;8.10;99.90;;;;;;5042947;28;20660;-77